Time;durP1;ratioP1;P1;durP2;ratioP2;P2;SDS_P1;SDS_P2;PMS_P1;PMS_P2;Temp;Humidity;BMP_temperature;BMP_pressure;BME280_temperature;BME280_humidity;BME280_pressure;Samples;Min_cycle;Max_cycle;Signal;HPM_P1;HPM_P2
2021/01/25 00:01:46;;;;;;;9.35;4.28;;;5.00;73.70;;;;;;5136240;27;20027;-62
2021/01/25 00:04:12;;;;;;;7.07;4.45;;;5.00;73.60;;;;;;5135399;27;20088;-62
2021/01/25 00:06:38;;;;;;;6.30;4.05;;;5.00;73.60;;;;;;5135889;27;20431;-62
2021/01/25 00:09:04;;;;;;;8.40;4.68;;;4.90;73.40;;;;;;5136074;27;20030;-62
2021/01/25 00:11:29;;;;;;;8.15;4.50;;;4.90;73.30;;;;;;5135276;27;20031;-62
2021/01/25 00:13:55;;;;;;;11.07;4.13;;;4.90;73.30;;;;;;5135941;27;20083;-62
2021/01/25 00:16:21;;;;;;;5.72;3.60;;;4.90;73.30;;;;;;5136304;27;20034;-62
2021/01/25 00:18:46;;;;;;;10.70;4.20;;;4.90;73.20;;;;;;5135185;27;20531;-62
2021/01/25 00:21:12;;;;;;;14.02;4.65;;;4.90;73.10;;;;;;5135963;27;20031;-62
2021/01/25 00:23:38;;;;;;;6.55;3.90;;;4.90;73.00;;;;;;5134753;27;20030;-62
2021/01/25 00:26:03;;;;;;;8.35;4.53;;;4.90;72.90;;;;;;5135576;27;20076;-62
2021/01/25 00:28:29;;;;;;;12.93;4.60;;;4.80;72.80;;;;;;5135416;27;20058;-62
2021/01/25 00:30:55;;;;;;;8.07;3.97;;;4.80;72.70;;;;;;5134957;27;20030;-62
2021/01/25 00:33:20;;;;;;;8.05;4.32;;;4.80;72.70;;;;;;5135862;27;20035;-62
2021/01/25 00:35:46;;;;;;;8.82;4.00;;;4.80;72.60;;;;;;5135488;27;20020;-62
2021/01/25 00:38:12;;;;;;;9.32;4.38;;;4.80;72.50;;;;;;5134840;27;20024;-61
2021/01/25 00:40:39;;;;;;;7.60;4.07;;;4.80;72.40;;;;;;5135290;27;20111;-62
2021/01/25 00:43:05;;;;;;;6.80;4.32;;;4.80;72.30;;;;;;5135678;27;20110;-62
2021/01/25 00:45:31;;;;;;;9.20;4.72;;;4.80;72.30;;;;;;5134757;27;20111;-62
2021/01/25 00:47:57;;;;;;;9.50;4.43;;;4.80;72.20;;;;;;5135357;27;20043;-62
2021/01/25 00:50:23;;;;;;;8.93;4.30;;;4.80;72.30;;;;;;5135508;27;20121;-62
2021/01/25 00:52:50;;;;;;;7.78;3.78;;;4.80;72.30;;;;;;5128983;27;20024;-62
2021/01/25 00:55:16;;;;;;;10.75;4.53;;;4.70;72.20;;;;;;5126168;27;20534;-62
2021/01/25 00:57:42;;;;;;;9.82;4.20;;;4.70;72.10;;;;;;5135088;27;20023;-62
2021/01/25 01:00:10;;;;;;;7.63;4.28;;;4.70;72.10;;;;;;5134392;27;20034;-62
2021/01/25 01:02:36;;;;;;;10.68;4.22;;;4.70;72.20;;;;;;5134853;27;20118;-62
2021/01/25 01:05:03;;;;;;;7.50;3.70;;;4.70;72.30;;;;;;5135092;27;20073;-62
2021/01/25 01:07:29;;;;;;;8.93;4.28;;;4.70;72.30;;;;;;5134162;27;20112;-62
2021/01/25 01:09:55;;;;;;;9.95;4.38;;;4.70;72.30;;;;;;5134608;27;20473;-62
2021/01/25 01:12:20;;;;;;;8.75;4.13;;;4.60;72.30;;;;;;5134989;27;20031;-62
2021/01/25 01:14:46;;;;;;;10.93;4.72;;;4.60;72.20;;;;;;5134218;27;20463;-62
2021/01/25 01:17:12;;;;;;;9.68;4.47;;;4.60;72.10;;;;;;5134703;27;20090;-62
2021/01/25 01:19:37;;;;;;;9.20;3.70;;;4.60;72.00;;;;;;5134645;27;20039;-62
2021/01/25 01:22:03;;;;;;;9.05;4.43;;;4.50;71.90;;;;;;5133772;27;20027;-62
2021/01/25 01:24:29;;;;;;;8.48;4.82;;;4.60;71.90;;;;;;5134636;27;20034;-62
2021/01/25 01:26:54;;;;;;;12.65;4.80;;;4.60;71.90;;;;;;5133515;27;20091;-62
2021/01/25 01:29:20;;;;;;;6.95;4.38;;;4.50;71.90;;;;;;5134617;27;20478;-62
2021/01/25 01:31:46;;;;;;;14.60;4.60;;;4.50;71.90;;;;;;5134513;27;20031;-62
2021/01/25 01:34:12;;;;;;;11.23;5.07;;;4.60;71.90;;;;;;5133618;27;20027;-62
2021/01/25 01:36:37;;;;;;;10.05;4.75;;;4.50;72.00;;;;;;5133952;27;20474;-62
2021/01/25 01:39:04;;;;;;;8.43;4.38;;;4.50;72.10;;;;;;5134074;27;20034;-62
2021/01/25 01:41:36;;;;;;;12.57;5.45;;;4.40;72.20;;;;;;5133628;27;20501;-62
2021/01/25 01:44:04;;;;;;;9.63;4.93;;;4.50;72.40;;;;;;5134303;27;20429;-62
2021/01/25 01:46:30;;;;;;;8.93;4.57;;;4.40;72.50;;;;;;5134242;27;20087;-62
2021/01/25 01:48:56;;;;;;;11.63;5.38;;;4.40;72.70;;;;;;5133441;27;20019;-62
2021/01/25 01:51:22;;;;;;;10.95;5.13;;;4.40;72.90;;;;;;5134167;27;20359;-62
2021/01/25 01:53:48;;;;;;;9.98;4.88;;;4.40;73.00;;;;;;5134316;27;20034;-62
2021/01/25 01:56:13;;;;;;;12.63;5.35;;;4.40;73.10;;;;;;5133379;27;20023;-62
2021/01/25 01:58:39;;;;;;;9.88;5.38;;;4.40;73.20;;;;;;5132787;27;20118;-62
2021/01/25 02:01:05;;;;;;;9.88;4.72;;;4.40;73.30;;;;;;5134039;27;20121;-62
2021/01/25 02:03:30;;;;;;;10.05;5.72;;;4.40;73.30;;;;;;5132951;27;20467;-62
2021/01/25 02:05:57;;;;;;;8.77;4.68;;;4.40;73.40;;;;;;5133684;27;20061;-62
2021/01/25 02:08:23;;;;;;;6.70;4.10;;;4.40;73.40;;;;;;5133987;27;20031;-62
2021/01/25 02:10:53;;;;;;;12.00;5.13;;;4.40;73.50;;;;;;5133182;27;20122;-62
2021/01/25 02:13:19;;;;;;;8.38;4.63;;;4.30;73.70;;;;;;5133834;27;20034;-62
2021/01/25 02:15:45;;;;;;;21.60;4.28;;;4.30;73.80;;;;;;5133712;27;20027;-62
2021/01/25 02:18:10;;;;;;;9.73;5.80;;;4.30;74.00;;;;;;5132820;27;20027;-61
2021/01/25 02:20:41;;;;;;;14.90;6.07;;;4.30;74.10;;;;;;5133652;27;20034;-62
2021/01/25 02:23:32;;;;;;;12.10;5.47;;;4.20;74.10;;;;;;5133400;27;20065;-62
2021/01/25 02:26:33;;;;;;;11.50;5.25;;;4.30;74.30;;;;;;5133811;27;20031;-62
2021/01/25 02:28:59;;;;;;;10.30;4.82;;;4.20;74.20;;;;;;5101475;28;20058;-62
2021/01/25 02:31:26;;;;;;;9.63;5.30;;;4.20;74.20;;;;;;5132764;28;20478;-62
2021/01/25 02:33:55;;;;;;;12.43;5.60;;;4.20;74.40;;;;;;5133225;28;20523;-62
2021/01/25 02:36:23;;;;;;;10.70;4.90;;;4.20;74.40;;;;;;5133530;28;20034;-62
2021/01/25 02:38:51;;;;;;;19.58;5.85;;;4.20;74.50;;;;;;5132637;28;20024;-62
2021/01/25 02:41:21;;;;;;;9.55;4.88;;;4.20;74.40;;;;;;5133635;28;20028;-62
2021/01/25 02:43:49;;;;;;;18.50;4.90;;;4.10;74.40;;;;;;5133357;28;20056;-62
2021/01/25 02:46:15;;;;;;;9.77;5.13;;;4.20;74.50;;;;;;5132989;28;20039;-62
2021/01/25 02:48:41;;;;;;;15.27;6.22;;;4.10;74.50;;;;;;5135435;27;20035;-62
2021/01/25 02:51:07;;;;;;;13.13;5.78;;;4.10;74.50;;;;;;5137800;27;20027;-62
2021/01/25 02:53:33;;;;;;;11.60;5.70;;;4.20;74.60;;;;;;5136936;27;20123;-62
2021/01/25 02:56:00;;;;;;;10.25;6.43;;;4.10;74.50;;;;;;5137334;27;20020;-62
2021/01/25 02:58:27;;;;;;;11.80;5.85;;;4.10;74.50;;;;;;5136941;27;20076;-62
2021/01/25 03:00:53;;;;;;;12.60;5.32;;;4.20;74.50;;;;;;5137513;27;20526;-62
2021/01/25 03:03:20;;;;;;;10.18;5.70;;;4.10;74.40;;;;;;5137590;27;20031;-62
2021/01/25 03:05:46;;;;;;;10.60;5.38;;;4.10;74.40;;;;;;5136433;27;20043;-62
2021/01/25 03:08:13;;;;;;;16.95;6.28;;;4.10;74.50;;;;;;5137362;27;20042;-62
2021/01/25 03:10:38;;;;;;;11.93;5.97;;;4.20;74.60;;;;;;5137173;27;20107;-62
2021/01/25 03:13:05;;;;;;;9.85;5.57;;;4.10;74.50;;;;;;5136555;27;20472;-62
2021/01/25 03:15:36;;;;;;;16.80;5.80;;;4.10;74.50;;;;;;5137200;27;20102;-62
2021/01/25 03:18:02;;;;;;;12.73;6.30;;;4.10;74.60;;;;;;5137127;27;20475;-62
2021/01/25 03:20:28;;;;;;;3.50;2.03;;;4.00;74.60;;;;;;5136370;27;20027;-62
2021/01/25 03:22:54;;;;;;;18.48;7.05;;;4.00;74.60;;;;;;5137014;27;20034;-62
2021/01/25 03:25:20;;;;;;;17.30;6.32;;;4.00;75.50;;;;;;5136957;27;20427;-61
2021/01/25 03:27:45;;;;;;;4.00;2.72;;;3.90;75.00;;;;;;5135793;27;20043;-62
2021/01/25 03:30:13;;;;;;;17.52;5.10;;;3.90;75.40;;;;;;5137175;27;20023;-62
2021/01/25 03:32:39;;;;;;;14.23;6.65;;;3.80;75.60;;;;;;5136928;27;20031;-62
2021/01/25 03:35:06;;;;;;;15.30;5.22;;;3.80;75.80;;;;;;5136115;27;20042;-62
2021/01/25 03:37:32;;;;;;;7.32;4.05;;;3.80;75.80;;;;;;5136785;27;20474;-62
2021/01/25 03:39:58;;;;;;;11.55;5.53;;;3.80;76.00;;;;;;5136522;27;20038;-62
2021/01/25 03:42:24;;;;;;;6.30;3.33;;;3.80;76.10;;;;;;5135973;27;20478;-61
2021/01/25 03:44:50;;;;;;;3.67;2.88;;;3.70;76.20;;;;;;5136695;27;20027;-62
2021/01/25 03:47:16;;;;;;;4.15;3.08;;;3.70;76.40;;;;;;5136650;27;20096;-62
2021/01/25 03:49:42;;;;;;;3.05;2.47;;;3.70;76.70;;;;;;5135869;27;20031;-62
2021/01/25 03:52:07;;;;;;;4.80;3.15;;;3.60;76.80;;;;;;5136354;27;20035;-62
2021/01/25 03:54:33;;;;;;;3.58;2.03;;;3.60;77.10;;;;;;5135996;27;20024;-63
2021/01/25 03:57:00;;;;;;;13.95;4.82;;;3.50;77.10;;;;;;5136182;27;21578;-62
2021/01/25 03:59:25;;;;;;;4.57;3.00;;;3.50;77.30;;;;;;5135803;27;20027;-62
2021/01/25 04:01:51;;;;;;;11.32;3.08;;;3.50;77.50;;;;;;5135568;27;20364;-63
2021/01/25 04:04:17;;;;;;;9.90;4.20;;;3.40;77.60;;;;;;5136340;27;20031;-62
2021/01/25 04:06:43;;;;;;;7.05;3.85;;;3.40;77.80;;;;;;5135951;27;20095;-62
2021/01/25 04:09:09;;;;;;;8.05;4.82;;;3.30;77.80;;;;;;5135198;27;20478;-62
2021/01/25 04:11:34;;;;;;;2.33;2.00;;;3.30;77.90;;;;;;5136080;27;20023;-62
2021/01/25 04:14:00;;;;;;;6.63;3.13;;;3.30;78.10;;;;;;5136066;27;20114;-62
2021/01/25 04:16:25;;;;;;;3.20;1.95;;;3.30;78.20;;;;;;5135253;27;20039;-62
2021/01/25 04:18:54;;;;;;;14.52;6.20;;;3.20;78.20;;;;;;5124786;27;20111;-62
2021/01/25 04:21:20;;;;;;;10.23;5.40;;;3.20;78.40;;;;;;5132933;27;20023;-62
2021/01/25 04:23:45;;;;;;;10.02;5.03;;;3.20;78.50;;;;;;5135134;27;20034;-62
2021/01/25 04:26:11;;;;;;;7.80;4.60;;;3.20;78.50;;;;;;5135840;27;20071;-62
2021/01/25 04:28:37;;;;;;;18.23;6.70;;;3.20;78.60;;;;;;5135714;27;20051;-62
2021/01/25 04:31:02;;;;;;;3.58;2.63;;;3.20;78.70;;;;;;5135179;27;20023;-62
2021/01/25 04:33:28;;;;;;;12.20;5.85;;;3.20;78.70;;;;;;5135557;27;20118;-62
2021/01/25 04:35:54;;;;;;;14.88;5.10;;;3.20;78.70;;;;;;5135656;27;20035;-62
2021/01/25 04:38:19;;;;;;;9.77;6.10;;;3.20;78.80;;;;;;5134609;27;20022;-62
2021/01/25 04:40:45;;;;;;;12.88;6.75;;;3.20;78.80;;;;;;5135629;27;20027;-62
2021/01/25 04:43:11;;;;;;;14.80;6.90;;;3.20;78.80;;;;;;5135445;27;20538;-63
2021/01/25 04:45:37;;;;;;;8.27;2.70;;;3.20;78.80;;;;;;5134254;27;20019;-62
2021/01/25 04:48:03;;;;;;;4.13;3.03;;;3.20;78.80;;;;;;5116588;27;20039;-62
2021/01/25 04:50:30;;;;;;;3.83;2.72;;;3.20;78.90;;;;;;5135740;27;20020;-62
2021/01/25 04:52:56;;;;;;;3.08;2.50;;;3.20;78.90;;;;;;5134576;27;20114;-62
2021/01/25 04:55:22;;;;;;;2.35;2.13;;;3.20;78.90;;;;;;5135318;27;20411;-62
2021/01/25 04:57:52;;;;;;;4.35;2.63;;;3.10;78.90;;;;;;5135090;27;20076;-62
2021/01/25 05:00:19;;;;;;;14.65;5.65;;;3.10;78.90;;;;;;5116590;27;20117;-62
2021/01/25 05:02:45;;;;;;;5.78;4.22;;;3.10;78.90;;;;;;5135052;27;20023;-62
2021/01/25 05:05:11;;;;;;;4.25;2.20;;;3.00;78.90;;;;;;5134050;27;20051;-62
2021/01/25 05:07:37;;;;;;;11.05;5.88;;;3.00;78.90;;;;;;5134697;27;20074;-63
2021/01/25 05:10:05;;;;;;;11.85;5.40;;;3.00;78.90;;;;;;5134750;27;20019;-62
2021/01/25 05:12:44;;;;;;;2.50;2.28;;;3.00;79.00;;;;;;5133482;27;20104;-62
2021/01/25 05:15:22;;;;;;;3.22;2.25;;;3.00;79.10;;;;;;5134840;27;20034;-62
2021/01/25 05:17:48;;;;;;;9.88;4.32;;;3.00;79.10;;;;;;5134609;27;20030;-62
2021/01/25 05:20:14;;;;;;;10.40;3.33;;;2.90;79.20;;;;;;5134292;27;20030;-62
2021/01/25 05:22:39;;;;;;;19.65;8.18;;;2.90;79.20;;;;;;5134716;27;20371;-62
2021/01/25 05:25:08;;;;;;;26.88;11.10;;;2.90;79.30;;;;;;5134614;27;20081;-62
2021/01/25 05:27:34;;;;;;;17.52;8.77;;;2.90;79.30;;;;;;5133592;27;20054;-62
2021/01/25 05:30:11;;;;;;;20.73;9.15;;;2.90;79.20;;;;;;5134441;27;20106;-62
2021/01/25 05:32:48;;;;;;;22.08;10.70;;;2.90;79.20;;;;;;5131703;27;20031;-62
2021/01/25 05:35:16;;;;;;;20.90;9.13;;;3.00;79.10;;;;;;5133146;27;20497;-62
2021/01/25 05:37:43;;;;;;;17.77;9.15;;;3.10;79.00;;;;;;5123780;27;20027;-63
2021/01/25 05:40:14;;;;;;;17.88;9.00;;;3.00;78.90;;;;;;5131712;27;20050;-63
2021/01/25 05:42:41;;;;;;;18.85;10.00;;;3.10;78.90;;;;;;5134159;27;20019;-63
2021/01/25 05:45:11;;;;;;;19.83;9.18;;;3.10;78.70;;;;;;5134204;27;20030;-63
2021/01/25 05:47:51;;;;;;;15.50;8.18;;;3.10;78.70;;;;;;5115002;27;20054;-63
2021/01/25 05:50:30;;;;;;;22.17;9.20;;;3.10;78.50;;;;;;5134060;27;20050;-63
2021/01/25 05:53:01;;;;;;;20.23;9.45;;;3.10;78.50;;;;;;5134079;27;20084;-63
2021/01/25 05:55:27;;;;;;;25.02;10.63;;;3.10;78.40;;;;;;5133156;27;20489;-62
2021/01/25 05:57:53;;;;;;;19.58;10.10;;;3.10;78.40;;;;;;5134105;27;20027;-63
2021/01/25 06:00:20;;;;;;;17.80;8.65;;;3.10;78.50;;;;;;5133927;27;20023;-62
2021/01/25 06:02:47;;;;;;;15.90;6.97;;;3.00;78.50;;;;;;5133182;27;20074;-63
2021/01/25 06:05:34;;;;;;;10.02;5.82;;;3.10;78.60;;;;;;5133726;27;20031;-63
2021/01/25 06:08:20;;;;;;;11.55;6.65;;;3.00;78.60;;;;;;5133734;27;20035;-63
2021/01/25 06:11:12;;;;;;;25.15;9.70;;;3.00;78.70;;;;;;5126862;27;21388;-65
2021/01/25 06:13:43;;;;;;;22.25;9.95;;;3.00;78.70;;;;;;5126486;27;20035;-63
2021/01/25 06:16:11;;;;;;;18.15;8.38;;;3.00;78.70;;;;;;5129910;27;20118;-63
2021/01/25 06:18:38;;;;;;;20.60;8.15;;;3.00;78.70;;;;;;5129350;27;20076;-72
2021/01/25 06:21:07;;;;;;;19.15;8.70;;;3.00;78.80;;;;;;5126856;27;20059;-64
2021/01/25 06:23:33;;;;;;;18.50;8.30;;;3.00;78.90;;;;;;5113977;27;20055;-63
2021/01/25 06:25:59;;;;;;;21.55;10.05;;;2.90;78.80;;;;;;5114614;28;20039;-64
2021/01/25 06:28:27;;;;;;;20.65;9.35;;;2.90;78.80;;;;;;5116988;28;20047;-64
2021/01/25 06:30:55;;;;;;;21.35;9.95;;;2.90;78.80;;;;;;5113510;28;20061;-63
2021/01/25 06:33:22;;;;;;;19.13;8.63;;;2.90;78.80;;;;;;5114807;28;20147;-63
2021/01/25 06:35:52;;;;;;;13.23;6.68;;;2.90;78.80;;;;;;5111467;28;20027;-64
2021/01/25 06:38:19;;;;;;;20.38;8.40;;;3.00;78.90;;;;;;5115995;28;20023;-64
2021/01/25 06:40:47;;;;;;;13.27;6.65;;;2.90;78.80;;;;;;5123807;28;20023;-64
2021/01/25 06:43:15;;;;;;;22.60;9.32;;;2.90;78.80;;;;;;5118773;28;20375;-66
2021/01/25 06:45:44;;;;;;;20.42;8.80;;;2.90;78.80;;;;;;5114538;28;20036;-64
2021/01/25 06:48:17;;;;;;;19.42;8.35;;;2.90;78.80;;;;;;5128542;28;20039;-64
2021/01/25 06:50:46;;;;;;;15.75;7.32;;;2.90;78.80;;;;;;5122400;28;20034;-65
2021/01/25 06:53:13;;;;;;;6.85;3.47;;;2.90;78.80;;;;;;5115779;28;20043;-64
2021/01/25 06:55:41;;;;;;;12.18;6.97;;;2.90;78.90;;;;;;5113278;28;20383;-78
2021/01/25 06:58:10;;;;;;;20.65;10.13;;;2.90;78.90;;;;;;5116818;28;20036;-66
2021/01/25 07:00:38;;;;;;;21.17;10.20;;;2.90;79.00;;;;;;5114237;28;20024;-64
2021/01/25 07:03:04;;;;;;;27.48;12.60;;;2.90;79.00;;;;;;5114578;28;20023;-64
2021/01/25 07:05:31;;;;;;;24.52;11.63;;;2.80;78.90;;;;;;5120514;28;20034;-65
2021/01/25 07:08:15;;;;;;;23.30;9.20;;;2.90;79.00;;;;;;5118652;28;20043;-64
2021/01/25 07:10:55;;;;;;;;;;;2.90;78.90;;;;;;5131334;28;20133;-65
2021/01/25 07:13:23;;;;;;;26.30;11.95;;;2.90;78.70;;;;;;5110787;28;19915;-64
2021/01/25 07:15:48;;;;;;;25.85;12.07;;;2.90;78.50;;;;;;5117715;28;20409;-65
2021/01/25 07:18:14;;;;;;;29.35;13.45;;;2.90;78.70;;;;;;5124126;28;20032;-65
2021/01/25 07:20:40;;;;;;;25.23;11.82;;;2.90;78.80;;;;;;5130563;28;20106;-66
2021/01/25 07:23:08;;;;;;;26.70;13.38;;;2.90;78.80;;;;;;5119156;28;20660;-64
2021/01/25 07:25:33;;;;;;;26.55;10.60;;;3.00;78.80;;;;;;5129295;28;20107;-66
2021/01/25 07:28:03;;;;;;;24.83;12.20;;;2.90;78.70;;;;;;5131413;28;20135;-66
2021/01/25 07:30:32;;;;;;;28.75;11.90;;;3.00;78.60;;;;;;5131700;28;20050;-66
2021/01/25 07:33:05;;;;;;;22.30;10.18;;;3.00;78.60;;;;;;5131234;28;20035;-66
2021/01/25 07:35:32;;;;;;;25.70;11.65;;;3.00;78.50;;;;;;5112359;27;20117;-65
2021/01/25 07:37:58;;;;;;;26.00;12.02;;;3.00;78.40;;;;;;5132749;27;20039;-65
2021/01/25 07:40:24;;;;;;;30.33;12.18;;;3.00;79.00;;;;;;5134898;27;20030;-65
2021/01/25 07:42:51;;;;;;;27.52;12.63;;;3.00;78.40;;;;;;5135490;27;20027;-66
2021/01/25 07:45:17;;;;;;;29.98;13.35;;;3.10;78.40;;;;;;5135280;27;20244;-66
2021/01/25 07:47:46;;;;;;;25.05;11.38;;;3.10;78.30;;;;;;5132744;27;20035;-65
2021/01/25 07:50:13;;;;;;;28.48;11.88;;;3.10;78.10;;;;;;5135860;27;20031;-65
2021/01/25 07:52:39;;;;;;;22.98;10.50;;;3.10;77.90;;;;;;5134984;27;20031;-65
2021/01/25 07:55:12;;;;;;;17.17;6.90;;;3.20;77.90;;;;;;5134904;27;20023;-66
2021/01/25 07:57:37;;;;;;;20.53;9.10;;;3.20;77.80;;;;;;5133849;27;20064;-67
2021/01/25 08:00:15;;;;;;;20.20;9.30;;;3.10;77.70;;;;;;5126616;27;20031;-64
2021/01/25 08:02:44;;;;;;;21.38;9.48;;;3.10;77.80;;;;;;5127489;27;20035;-64
2021/01/25 08:05:11;;;;;;;27.90;12.25;;;3.10;77.80;;;;;;5121907;27;20031;-64
2021/01/25 08:07:38;;;;;;;26.63;11.40;;;3.10;77.80;;;;;;5130906;27;20126;-65
2021/01/25 08:10:05;;;;;;;23.65;11.23;;;3.10;77.90;;;;;;5134122;27;20068;-65
2021/01/25 08:12:32;;;;;;;23.38;10.95;;;3.10;77.80;;;;;;5123529;27;20106;-64
2021/01/25 08:15:05;;;;;;;17.45;8.43;;;3.10;77.70;;;;;;5133113;27;20031;-64
2021/01/25 08:17:36;;;;;;;27.20;10.32;;;3.10;77.80;;;;;;5124479;27;20031;-64
2021/01/25 08:20:22;;;;;;;28.98;12.98;;;3.10;77.80;;;;;;5132362;27;20027;-64
2021/01/25 08:22:56;;;;;;;29.98;11.32;;;3.10;78.00;;;;;;5133225;27;20492;-64
2021/01/25 08:25:26;;;;;;;29.60;13.52;;;3.10;78.10;;;;;;5123285;27;20356;-65
2021/01/25 08:27:59;;;;;;;27.40;12.60;;;3.10;78.10;;;;;;5134085;27;20506;-65
2021/01/25 08:30:37;;;;;;;30.25;12.73;;;3.20;78.30;;;;;;5133998;27;20677;-64
2021/01/25 08:33:04;;;;;;;29.77;13.48;;;3.20;78.30;;;;;;5132662;27;20063;-65
2021/01/25 08:35:52;;;;;;;31.17;13.88;;;3.20;78.10;;;;;;5133994;27;20110;-65
2021/01/25 08:38:40;;;;;;;25.95;13.32;;;3.30;78.20;;;;;;5134218;27;20101;-64
2021/01/25 08:41:28;;;;;;;27.00;12.63;;;3.40;78.30;;;;;;5130088;27;20047;-65
2021/01/25 08:43:57;;;;;;;29.20;13.27;;;3.40;78.30;;;;;;5118328;27;20130;-65
2021/01/25 08:46:31;;;;;;;26.40;12.32;;;3.40;78.20;;;;;;5125997;27;20034;-63
2021/01/25 08:49:31;;;;;;;25.30;11.73;;;3.40;78.30;;;;;;5125079;27;20083;-63
2021/01/25 08:52:05;;;;;;;20.17;11.40;;;3.40;78.30;;;;;;5118456;27;20038;-64
2021/01/25 08:54:39;;;;;;;29.90;12.90;;;3.50;78.20;;;;;;5129572;27;20080;-63
2021/01/25 08:57:16;;;;;;;26.40;12.00;;;3.50;78.30;;;;;;5121437;27;20030;-63
2021/01/25 08:59:44;;;;;;;26.27;11.93;;;3.50;79.00;;;;;;5118828;27;20127;-63
2021/01/25 09:02:18;;;;;;;24.67;11.07;;;3.60;78.30;;;;;;5133659;27;20031;-63
2021/01/25 09:04:45;;;;;;;20.73;11.30;;;3.60;78.30;;;;;;5127512;27;20114;-63
2021/01/25 09:07:17;;;;;;;22.52;9.88;;;3.60;78.20;;;;;;5130234;27;20065;-64
2021/01/25 09:09:43;;;;;;;23.00;9.70;;;3.60;78.10;;;;;;5133336;27;20126;-64
2021/01/25 09:12:10;;;;;;;27.77;12.20;;;3.70;78.10;;;;;;5128271;27;20038;-66
2021/01/25 09:14:36;;;;;;;22.88;11.60;;;3.70;78.20;;;;;;5131529;27;20022;-65
2021/01/25 09:17:02;;;;;;;21.65;10.50;;;3.70;78.20;;;;;;5128506;27;20160;-64
2021/01/25 09:19:28;;;;;;;29.90;10.40;;;3.70;78.30;;;;;;5128693;27;20118;-64
2021/01/25 09:21:54;;;;;;;21.33;11.18;;;3.60;78.20;;;;;;5124417;27;20174;-65
2021/01/25 09:24:20;;;;;;;22.20;10.95;;;3.70;78.20;;;;;;5121007;27;20030;-63
2021/01/25 09:26:46;;;;;;;5.95;3.42;;;3.70;78.20;;;;;;5125309;27;20035;-63
2021/01/25 09:29:11;;;;;;;14.13;5.28;;;3.70;78.00;;;;;;5102296;27;20404;-63
2021/01/25 09:31:37;;;;;;;9.65;4.53;;;3.70;77.70;;;;;;5121946;27;20031;-64
2021/01/25 09:34:03;;;;;;;18.05;8.90;;;3.60;77.60;;;;;;5124693;27;20022;-64
2021/01/25 09:36:28;;;;;;;11.27;6.47;;;3.60;77.70;;;;;;5121984;27;20037;-66
2021/01/25 09:38:54;;;;;;;19.90;8.10;;;3.60;77.70;;;;;;5118870;27;20035;-69
2021/01/25 09:41:21;;;;;;;3.17;2.63;;;3.60;77.70;;;;;;5130389;27;20144;-67
2021/01/25 09:43:47;;;;;;;15.50;8.30;;;3.60;77.80;;;;;;5122306;27;20049;-66
2021/01/25 09:46:12;;;;;;;14.80;6.50;;;3.50;77.80;;;;;;5127758;27;20466;-64
2021/01/25 09:48:38;;;;;;;12.05;6.60;;;3.50;78.00;;;;;;5124187;27;20407;-65
2021/01/25 09:51:04;;;;;;;6.65;4.32;;;3.50;78.00;;;;;;5132870;27;20106;-66
2021/01/25 09:53:29;;;;;;;20.77;8.10;;;3.50;78.20;;;;;;5132303;27;20107;-64
2021/01/25 09:55:57;;;;;;;20.75;9.25;;;3.50;78.20;;;;;;5132419;27;20391;-66
2021/01/25 09:58:23;;;;;;;6.15;3.50;;;3.50;78.30;;;;;;5126310;27;20027;-65
2021/01/25 10:00:50;;;;;;;8.80;3.35;;;3.50;78.30;;;;;;5125609;27;20084;-64
2021/01/25 10:03:16;;;;;;;18.35;7.03;;;3.50;78.40;;;;;;5124674;27;20027;-66
2021/01/25 10:05:42;;;;;;;10.48;5.35;;;3.50;78.40;;;;;;5131950;27;20033;-66
2021/01/25 10:08:08;;;;;;;14.80;7.60;;;3.50;78.60;;;;;;5132086;27;20055;-64
2021/01/25 10:10:34;;;;;;;11.50;5.68;;;3.50;78.70;;;;;;5132861;27;20027;-65
2021/01/25 10:13:00;;;;;;;6.30;4.15;;;3.50;78.80;;;;;;5125275;27;20030;-65
2021/01/25 10:15:26;;;;;;;9.20;4.38;;;3.50;78.80;;;;;;5130986;27;20058;-65
2021/01/25 10:17:51;;;;;;;20.00;7.47;;;3.50;78.80;;;;;;5119267;27;20031;-65
2021/01/25 10:20:17;;;;;;;22.27;7.30;;;3.50;78.90;;;;;;5112151;28;20089;-63
2021/01/25 10:22:43;;;;;;;15.48;6.80;;;3.50;79.10;;;;;;5125566;27;20023;-65
2021/01/25 10:25:10;;;;;;;11.52;5.22;;;3.50;79.10;;;;;;5132934;27;20022;-65
2021/01/25 10:27:37;;;;;;;17.63;7.22;;;3.50;79.20;;;;;;5132111;27;20075;-63
2021/01/25 10:30:07;;;;;;;12.60;5.78;;;3.50;79.30;;;;;;5131721;28;20433;-63
2021/01/25 10:32:32;;;;;;;15.15;6.47;;;3.50;79.30;;;;;;5132570;28;20386;-64
2021/01/25 10:34:59;;;;;;;7.45;4.88;;;3.60;79.40;;;;;;5132595;28;20024;-64
2021/01/25 10:37:26;;;;;;;8.07;4.15;;;3.60;79.50;;;;;;5132067;27;20051;-62
2021/01/25 10:39:51;;;;;;;9.38;4.60;;;3.60;79.50;;;;;;5131826;27;20051;-66
2021/01/25 10:42:17;;;;;;;12.88;7.20;;;3.60;79.60;;;;;;5131702;28;20056;-64
2021/01/25 10:44:43;;;;;;;4.03;2.83;;;3.60;79.70;;;;;;5131319;28;20031;-66
2021/01/25 10:47:12;;;;;;;14.98;7.20;;;3.60;79.70;;;;;;5125372;28;20520;-66
2021/01/25 10:49:38;;;;;;;1.98;1.20;;;3.60;79.90;;;;;;5131756;28;20080;-65
2021/01/25 10:52:03;;;;;;;4.05;1.75;;;3.60;80.00;;;;;;5132146;27;20509;-65
2021/01/25 10:54:29;;;;;;;2.90;2.13;;;3.60;80.10;;;;;;5132252;28;20023;-66
2021/01/25 10:56:55;;;;;;;3.90;2.20;;;3.60;80.20;;;;;;5131399;28;20031;-67
2021/01/25 10:59:20;;;;;;;4.47;2.13;;;3.70;80.30;;;;;;5132462;28;20034;-67
2021/01/25 11:01:46;;;;;;;14.30;6.18;;;3.70;80.30;;;;;;5131951;28;20023;-68
2021/01/25 11:04:12;;;;;;;6.30;3.42;;;3.70;80.40;;;;;;5131344;28;20490;-67
2021/01/25 11:06:38;;;;;;;1.95;1.42;;;3.80;80.50;;;;;;5115992;28;20063;-66
2021/01/25 11:09:04;;;;;;;2.95;2.15;;;3.80;80.50;;;;;;5114874;27;20027;-65
2021/01/25 11:11:29;;;;;;;2.72;2.15;;;3.90;80.70;;;;;;5124973;27;20020;-64
2021/01/25 11:13:55;;;;;;;9.95;4.20;;;3.90;81.00;;;;;;5126620;27;20035;-65
2021/01/25 11:16:21;;;;;;;4.70;2.85;;;3.90;81.20;;;;;;5135534;27;20011;-64
2021/01/25 11:18:48;;;;;;;3.88;2.53;;;3.90;81.10;;;;;;5134889;27;20053;-64
2021/01/25 11:21:14;;;;;;;4.90;3.45;;;4.00;81.40;;;;;;5135906;27;20038;-64
2021/01/25 11:23:39;;;;;;;5.80;2.85;;;4.00;81.60;;;;;;5135843;27;20027;-66
2021/01/25 11:26:05;;;;;;;1.15;1.08;;;4.10;81.90;;;;;;5135160;27;20042;-64
2021/01/25 11:28:30;;;;;;;7.13;4.30;;;4.10;82.00;;;;;;5135366;27;20047;-64
2021/01/25 11:30:56;;;;;;;8.48;4.43;;;4.10;82.20;;;;;;5135703;27;20027;-65
2021/01/25 11:33:22;;;;;;;17.10;4.40;;;4.10;82.50;;;;;;5134925;27;20019;-64
2021/01/25 11:35:47;;;;;;;2.72;1.65;;;4.20;82.70;;;;;;5135289;27;20463;-65
2021/01/25 11:38:13;;;;;;;6.40;4.20;;;4.20;83.40;;;;;;5135686;27;20059;-65
2021/01/25 11:40:39;;;;;;;6.30;2.20;;;4.20;82.90;;;;;;5134674;27;20050;-65
2021/01/25 11:43:05;;;;;;;6.50;3.92;;;4.30;83.10;;;;;;5126093;27;20035;-65
2021/01/25 11:45:30;;;;;;;8.88;5.00;;;4.30;83.10;;;;;;5134712;27;20019;-66
2021/01/25 11:47:56;;;;;;;13.73;5.95;;;4.40;83.20;;;;;;5134645;27;20047;-65
2021/01/25 11:50:22;;;;;;;10.77;5.20;;;4.40;83.30;;;;;;5135149;27;20068;-65
2021/01/25 11:52:48;;;;;;;2.13;1.48;;;4.50;83.50;;;;;;5134946;27;20027;-65
2021/01/25 11:55:13;;;;;;;8.30;4.18;;;4.50;83.60;;;;;;5134876;27;20027;-64
2021/01/25 11:57:39;;;;;;;8.77;5.47;;;4.50;83.70;;;;;;5134518;27;20045;-68
2021/01/25 12:00:07;;;;;;;12.05;4.63;;;4.60;83.90;;;;;;5134429;27;20023;-70
2021/01/25 12:02:32;;;;;;;6.13;3.13;;;4.70;84.00;;;;;;5135312;27;20026;-76
2021/01/25 12:04:58;;;;;;;2.72;2.30;;;4.70;84.10;;;;;;5134818;27;20394;-66
2021/01/25 12:07:24;;;;;;;15.93;7.18;;;4.80;84.20;;;;;;5134370;27;20436;-69
2021/01/25 12:09:49;;;;;;;7.50;4.25;;;4.80;84.40;;;;;;5134924;27;20601;-66
2021/01/25 12:12:15;;;;;;;9.88;3.65;;;4.90;84.60;;;;;;5128927;27;20031;-66
2021/01/25 12:14:40;;;;;;;5.63;3.38;;;4.90;84.80;;;;;;5134346;27;20031;-66
2021/01/25 12:17:06;;;;;;;8.32;4.47;;;5.00;84.90;;;;;;5135436;27;20486;-65
2021/01/25 12:19:32;;;;;;;5.15;2.78;;;5.00;85.00;;;;;;5131941;27;20482;-65
2021/01/25 12:21:58;;;;;;;13.63;6.95;;;5.10;85.00;;;;;;5122452;27;20497;-65
2021/01/25 12:24:23;;;;;;;7.20;2.72;;;5.10;85.00;;;;;;5134739;27;20428;-66
2021/01/25 12:26:50;;;;;;;12.07;5.90;;;5.20;85.20;;;;;;5134394;27;20087;-66
2021/01/25 12:29:17;;;;;;;10.43;5.63;;;5.20;85.30;;;;;;5134175;27;20521;-66
2021/01/25 12:31:43;;;;;;;5.93;3.83;;;5.20;85.20;;;;;;5134444;27;20422;-66
2021/01/25 12:34:09;;;;;;;5.10;3.28;;;5.30;85.40;;;;;;5134964;27;20113;-66
2021/01/25 12:36:35;;;;;;;9.27;4.47;;;5.30;85.40;;;;;;5133788;27;20035;-66
2021/01/25 12:39:01;;;;;;;9.80;5.38;;;5.40;85.50;;;;;;5134768;27;20386;-65
2021/01/25 12:41:27;;;;;;;8.10;3.58;;;5.50;85.60;;;;;;5134383;27;20160;-65
2021/01/25 12:43:53;;;;;;;10.40;4.50;;;5.50;85.70;;;;;;5133477;27;20130;-65
2021/01/25 12:46:20;;;;;;;8.60;4.40;;;5.50;85.70;;;;;;5134362;27;20015;-66
2021/01/25 12:48:46;;;;;;;7.25;4.32;;;5.60;85.80;;;;;;5134319;27;20132;-66
2021/01/25 12:51:11;;;;;;;11.80;4.35;;;5.70;86.00;;;;;;5133825;27;20031;-66
2021/01/25 12:53:37;;;;;;;3.85;2.65;;;5.70;86.00;;;;;;5134068;27;20041;-66